Airfield :
LOGIN :

Register | Disclaimer

   EN    FR    IT 

 










Legend :    VFR   Marginal VFR   IFR   Intensive IFR   Very Intensive IFR
Visi :
Ceiling :
>= 8 km
>= 3000ft
5 to 8 km
1000 to 3000 ft
1500m to 5 km
500 to 1000 ft
800 to 1500m
200 to 500 ft
< 800m
< 200 ft
Symbols :   Thunderstorms  Fog  Heavy snow  Heavy precipitations  Wind > 20 kt
SIGMETs :     Misc.  Thunderstorms  Icing  Turbulence  Mountain Waves  Volcanic Ashes







- Airport Elevation : 870 ft
- IATA code : ETZ
- Download approach charts


LFJL - Metz Nancy Lorraine

CURRENT METAR :
  • 261030Z AUTO 25009KT 210V280 9999 FEW039 19/10 Q1017 NOSIG

EXPIRED METARs :
  • 261000Z AUTO VRB06KT 9999 FEW035 19/09 Q1018 NOSIG
  • 260930Z AUTO 28005KT 230V300 9999 FEW023 18/10 Q1018 NOSIG
  • 260900Z AUTO 26006KT 220V290 9999 BKN024 17/10 Q1018 NOSIG
  • 260830Z AUTO 24004KT 210V270 CAVOK 17/12 Q1018 NOSIG
  • 260800Z AUTO 23004KT 160V290 CAVOK 16/11 Q1018 NOSIG

TAF AMD TAF LFJL
Valid from the 26 at 06:00 until the 27 at 06:00 UTC


260627Z 2606/2706 23004KT 9999 FEW030
TEMPO 2610/2616 29010KT
No reported NOTAMs for that airfield.



MET'MAP, your aeronautical weather chart ! - Copyright ORBIFLY December 2007 - Disclaimer

ORBIFLY MET'MAP TEAM :

Programming & Development : Alexandra Zaïnal
Concept & Development : Baudouin d'Aumeries
Co-Development & Prog : Marc-Olivier Méhu
Technical & hardware support : Manuel Goepfert

Contact : metmap@orbifly.com




SOURCES & CREDITS :

   NOAA